createdAt,value
2018-06-29T00:01:45.989Z,1.93
2018-06-29T00:04:13.860Z,2.30
2018-06-29T00:06:41.733Z,2.80
2018-06-29T00:09:09.893Z,3.00
2018-06-29T00:11:37.795Z,4.60
2018-06-29T00:14:05.740Z,4.10
2018-06-29T00:16:33.569Z,2.43
2018-06-29T00:19:01.524Z,3.50
2018-06-29T00:21:29.528Z,3.33
2018-06-29T00:23:57.355Z,3.30
2018-06-29T00:26:25.116Z,3.00
2018-06-29T00:28:52.896Z,2.40
2018-06-29T00:31:20.679Z,2.40
2018-06-29T00:33:48.563Z,2.63
2018-06-29T00:36:16.564Z,2.27
2018-06-29T00:38:44.481Z,3.13
2018-06-29T00:41:12.547Z,3.10
2018-06-29T00:43:40.384Z,2.77
2018-06-29T00:46:08.153Z,4.00
2018-06-29T00:48:36.120Z,2.73
2018-06-29T00:51:03.931Z,2.63
2018-06-29T00:53:31.726Z,3.43
2018-06-29T00:55:59.704Z,3.73
2018-06-29T00:58:27.633Z,3.93
2018-06-29T01:00:55.659Z,8.13
2018-06-29T01:03:23.638Z,5.57
2018-06-29T01:05:51.439Z,5.67
2018-06-29T01:08:19.407Z,3.77
2018-06-29T01:10:47.152Z,6.00
2018-06-29T01:13:15.221Z,4.13
2018-06-29T01:15:43.183Z,3.90
2018-06-29T01:18:11.136Z,4.30
2018-06-29T01:20:39.321Z,3.83
2018-06-29T01:23:07.409Z,3.53
2018-06-29T01:25:35.481Z,3.43
2018-06-29T01:28:03.288Z,4.70
2018-06-29T01:30:31.152Z,4.33
2018-06-29T01:32:58.990Z,3.83
2018-06-29T01:35:26.896Z,2.47
2018-06-29T01:37:55.840Z,3.60
2018-06-29T01:40:23.672Z,4.03
2018-06-29T01:42:51.472Z,2.83
2018-06-29T01:45:19.448Z,4.90
2018-06-29T01:47:47.324Z,8.10
2018-06-29T01:50:15.252Z,4.67
2018-06-29T01:52:43.177Z,3.63
2018-06-29T01:55:11.864Z,3.83
2018-06-29T01:57:39.699Z,3.07
2018-06-29T02:00:07.650Z,4.77
2018-06-29T02:02:35.644Z,3.43
2018-06-29T02:05:03.742Z,4.70
2018-06-29T02:07:31.700Z,2.97
2018-06-29T02:09:59.815Z,2.90
2018-06-29T02:12:27.718Z,2.87
2018-06-29T02:14:55.540Z,2.97
2018-06-29T02:17:23.211Z,1.97
2018-06-29T02:19:51.117Z,2.70
2018-06-29T02:22:18.943Z,2.80
2018-06-29T02:24:46.677Z,1.80
2018-06-29T02:27:15.073Z,3.10
2018-06-29T02:29:42.728Z,2.93
2018-06-29T02:32:10.640Z,2.37
2018-06-29T02:34:38.999Z,3.37
2018-06-29T02:37:06.860Z,5.70
2018-06-29T02:39:34.768Z,6.27
2018-06-29T02:42:02.646Z,5.17
2018-06-29T02:44:30.698Z,3.90
2018-06-29T02:46:58.877Z,2.73
2018-06-29T02:49:26.835Z,2.90
2018-06-29T02:51:54.674Z,3.30
2018-06-29T02:54:22.460Z,2.30
2018-06-29T02:56:50.206Z,2.20
2018-06-29T02:59:17.940Z,4.23
2018-06-29T03:01:45.687Z,3.47
2018-06-29T03:04:13.390Z,2.80
2018-06-29T03:06:41.443Z,3.33
2018-06-29T03:09:09.908Z,2.80
2018-06-29T03:11:37.882Z,4.77
2018-06-29T03:14:05.501Z,2.03
2018-06-29T03:16:32.993Z,1.90
2018-06-29T03:19:00.509Z,2.23
2018-06-29T03:21:28.070Z,4.07
2018-06-29T03:23:55.586Z,3.40
2018-06-29T03:26:23.099Z,2.10
2018-06-29T03:28:50.773Z,1.50
2018-06-29T03:31:18.280Z,2.50
2018-06-29T03:33:45.790Z,2.07
2018-06-29T03:36:13.297Z,1.97
2018-06-29T03:38:40.851Z,1.60
2018-06-29T03:41:08.369Z,1.77
2018-06-29T03:43:36.113Z,2.07
2018-06-29T03:46:03.697Z,2.43
2018-06-29T03:48:31.233Z,2.80
2018-06-29T03:50:58.789Z,4.00
2018-06-29T03:53:26.343Z,4.63
2018-06-29T03:55:53.891Z,2.33
2018-06-29T03:58:21.461Z,2.90
2018-06-29T04:00:49.031Z,4.37
2018-06-29T04:03:16.727Z,4.53
2018-06-29T04:05:44.225Z,3.07
2018-06-29T04:08:11.710Z,3.10
2018-06-29T04:10:39.330Z,2.33
2018-06-29T04:13:06.862Z,2.00
2018-06-29T04:15:34.410Z,4.13
2018-06-29T04:18:01.956Z,2.43
2018-06-29T04:20:30.005Z,2.80
2018-06-29T04:22:57.956Z,5.47
2018-06-29T04:25:25.660Z,3.47
2018-06-29T04:27:53.201Z,4.77
2018-06-29T04:30:20.744Z,3.20
2018-06-29T04:32:52.223Z,3.10
2018-06-29T04:35:19.793Z,3.50
2018-06-29T04:37:47.503Z,3.37
2018-06-29T04:40:15.018Z,4.17
2018-06-29T04:42:42.574Z,3.70
2018-06-29T04:45:14.266Z,4.53
2018-06-29T04:47:41.887Z,3.83
2018-06-29T04:50:09.564Z,4.23
2018-06-29T04:52:37.241Z,6.57
2018-06-29T04:55:04.806Z,3.70
2018-06-29T04:57:32.541Z,3.47
2018-06-29T05:00:00.075Z,5.10
2018-06-29T05:02:28.787Z,4.80
2018-06-29T05:04:56.290Z,3.73
2018-06-29T05:07:23.833Z,5.47
2018-06-29T05:09:51.390Z,5.37
2018-06-29T05:12:18.897Z,3.10
2018-06-29T05:14:46.394Z,5.10
2018-06-29T05:17:13.934Z,3.67
2018-06-29T05:19:42.230Z,3.77
2018-06-29T05:22:09.870Z,3.90
2018-06-29T05:24:37.433Z,4.53
2018-06-29T05:27:05.022Z,7.17
2018-06-29T05:29:32.606Z,5.33
2018-06-29T05:32:00.269Z,5.23
2018-06-29T05:34:28.637Z,4.10
2018-06-29T05:36:56.234Z,3.90
2018-06-29T05:39:23.803Z,3.07
2018-06-29T05:41:51.294Z,4.67
2018-06-29T05:44:19.162Z,7.43
2018-06-29T05:46:46.670Z,5.60
2018-06-29T05:49:14.204Z,4.83
2018-06-29T05:51:41.778Z,6.73
2018-06-29T05:54:09.466Z,4.27
2018-06-29T05:56:36.966Z,4.13
2018-06-29T05:59:04.606Z,4.70
2018-06-29T06:01:32.286Z,4.50
2018-06-29T06:03:59.838Z,4.77
2018-06-29T06:06:27.438Z,5.30
2018-06-29T06:08:54.893Z,4.70
2018-06-29T06:11:22.434Z,4.83
2018-06-29T06:13:50.391Z,3.07
2018-06-29T06:16:18.071Z,3.67
2018-06-29T06:18:45.787Z,4.17
2018-06-29T06:21:13.279Z,4.70
2018-06-29T06:23:40.822Z,3.67
2018-06-29T06:26:08.334Z,3.83
2018-06-29T06:28:35.875Z,5.13
2018-06-29T06:31:03.463Z,4.90
2018-06-29T06:33:31.237Z,4.13
2018-06-29T06:35:59.010Z,4.77
2018-06-29T06:38:26.655Z,5.27
2018-06-29T06:40:54.213Z,5.10
2018-06-29T06:46:15.432Z,5.63
2018-06-29T06:48:43.296Z,4.67
2018-06-29T06:51:10.878Z,5.67
2018-06-29T06:53:43.398Z,6.63
2018-06-29T06:56:10.973Z,5.20
2018-06-29T06:58:38.716Z,4.17
2018-06-29T07:01:06.321Z,3.87
2018-06-29T07:03:33.885Z,7.90
2018-06-29T07:06:02.026Z,8.90
2018-06-29T07:08:29.829Z,9.90
2018-06-29T07:10:58.209Z,7.43
2018-06-29T07:13:25.896Z,7.63
2018-06-29T07:15:53.505Z,8.03
2018-06-29T07:18:21.308Z,13.57
2018-06-29T07:20:49.041Z,7.83
2018-06-29T07:23:16.681Z,10.90
2018-06-29T07:25:44.301Z,6.00
2018-06-29T07:28:11.901Z,8.20
2018-06-29T07:30:39.557Z,8.10
2018-06-29T07:33:07.246Z,6.03
2018-06-29T07:35:34.832Z,9.30
2018-06-29T07:38:02.846Z,8.83
2018-06-29T07:40:30.440Z,8.37
2018-06-29T07:42:58.039Z,6.13
2018-06-29T07:45:25.771Z,7.47
2018-06-29T07:47:53.380Z,11.43
2018-06-29T07:50:21.040Z,6.63
2018-06-29T07:52:48.898Z,5.50
2018-06-29T07:55:16.460Z,4.50
2018-06-29T07:57:44.163Z,5.60
2018-06-29T08:00:11.777Z,6.17
2018-06-29T08:02:39.372Z,6.57
2018-06-29T08:05:07.063Z,5.73
2018-06-29T08:07:34.676Z,9.07
2018-06-29T08:10:02.591Z,6.10
2018-06-29T08:12:30.234Z,7.33
2018-06-29T08:14:57.877Z,7.23
2018-06-29T08:17:25.791Z,6.57
2018-06-29T08:19:53.447Z,7.57
2018-06-29T08:22:21.111Z,6.30
2018-06-29T08:25:00.156Z,6.93
2018-06-29T08:27:28.027Z,6.03
2018-06-29T08:29:55.689Z,10.33
2018-06-29T08:32:24.406Z,6.03
2018-06-29T08:34:51.944Z,5.87
2018-06-29T08:37:19.575Z,7.07
2018-06-29T08:39:47.184Z,6.33
2018-06-29T08:42:14.864Z,8.33
2018-06-29T08:44:42.458Z,7.57
2018-06-29T08:47:10.139Z,10.67
2018-06-29T08:49:37.816Z,10.37
2018-06-29T08:52:05.655Z,10.87
2018-06-29T08:54:33.232Z,11.10
2018-06-29T08:57:00.904Z,8.50
2018-06-29T08:59:29.461Z,12.10
2018-06-29T09:01:57.419Z,7.53
2018-06-29T09:04:25.258Z,8.20
2018-06-29T09:06:53.013Z,10.33
2018-06-29T09:09:20.777Z,8.50
2018-06-29T09:11:48.364Z,6.50
2018-06-29T09:14:16.076Z,9.13
2018-06-29T09:16:44.024Z,7.50
2018-06-29T09:19:11.868Z,7.77
2018-06-29T09:21:39.563Z,8.60
2018-06-29T09:24:07.177Z,9.13
2018-06-29T09:26:34.781Z,9.90
2018-06-29T09:29:02.384Z,8.33
2018-06-29T09:31:29.971Z,9.17
2018-06-29T09:33:57.478Z,8.63
2018-06-29T09:36:25.143Z,6.80
2018-06-29T09:38:53.068Z,7.87
2018-06-29T09:41:20.636Z,8.13
2018-06-29T09:43:48.908Z,8.03
2018-06-29T09:46:16.515Z,8.00
2018-06-29T09:48:44.241Z,6.80
2018-06-29T09:51:11.977Z,7.70
2018-06-29T09:53:39.543Z,9.10
2018-06-29T09:56:07.179Z,6.77
2018-06-29T09:58:34.742Z,10.27
2018-06-29T10:01:02.344Z,8.77
2018-06-29T10:03:29.917Z,5.97
2018-06-29T10:05:57.538Z,6.53
2018-06-29T10:08:25.301Z,5.60
2018-06-29T10:10:52.957Z,6.57
2018-06-29T10:13:20.544Z,6.43
2018-06-29T10:15:48.135Z,5.70
2018-06-29T10:18:15.738Z,6.43
2018-06-29T10:20:43.332Z,5.73
2018-06-29T10:23:10.928Z,6.40
2018-06-29T10:25:38.793Z,8.00
2018-06-29T10:28:06.443Z,6.53
2018-06-29T10:30:34.095Z,6.37
2018-06-29T10:33:01.702Z,6.30
2018-06-29T10:35:29.341Z,5.43
2018-06-29T10:37:57.111Z,4.33
2018-06-29T10:40:24.696Z,6.93
2018-06-29T10:42:52.517Z,5.73
2018-06-29T10:45:20.089Z,5.23
2018-06-29T10:47:47.668Z,8.77
2018-06-29T10:50:15.245Z,5.13
2018-06-29T10:52:43.785Z,9.10
2018-06-29T10:55:11.439Z,6.30
2018-06-29T10:57:39.131Z,5.53
2018-06-29T11:00:06.798Z,7.63
2018-06-29T11:02:34.412Z,6.43
2018-06-29T11:05:02.200Z,6.67
2018-06-29T11:07:29.824Z,8.63
2018-06-29T11:09:57.455Z,5.93
2018-06-29T11:12:26.096Z,5.03
2018-06-29T11:14:53.790Z,5.10
2018-06-29T11:17:21.417Z,5.30
2018-06-29T11:19:49.034Z,6.67
2018-06-29T11:22:16.651Z,5.93
2018-06-29T11:24:44.194Z,6.77
2018-06-29T11:27:12.132Z,6.30
2018-06-29T11:29:39.761Z,5.70
2018-06-29T11:32:08.243Z,4.97
2018-06-29T11:34:35.878Z,6.47
2018-06-29T11:37:03.805Z,4.40
2018-06-29T11:39:31.696Z,4.20
2018-06-29T11:41:59.297Z,4.33
2018-06-29T11:44:26.905Z,9.45
2018-06-29T11:46:54.538Z,4.60
2018-06-29T11:49:22.208Z,5.33
2018-06-29T11:51:49.790Z,4.08
2018-06-29T11:54:17.376Z,4.53
2018-06-29T11:56:44.998Z,7.58
2018-06-29T11:59:12.602Z,4.28
2018-06-29T12:01:40.449Z,4.10
2018-06-29T12:04:08.017Z,4.33
2018-06-29T12:06:35.625Z,4.40
2018-06-29T12:09:05.180Z,4.05
2018-06-29T12:11:32.765Z,4.08
2018-06-29T12:14:00.375Z,3.47
2018-06-29T12:16:27.932Z,4.85
2018-06-29T12:18:59.474Z,4.28
2018-06-29T12:21:29.022Z,3.87
2018-06-29T12:23:56.636Z,5.85
2018-06-29T12:26:24.331Z,8.45
2018-06-29T12:28:51.914Z,5.90
2018-06-29T12:31:19.511Z,4.03
2018-06-29T12:33:47.049Z,5.05
2018-06-29T12:36:14.648Z,5.90
2018-06-29T12:38:42.211Z,3.33
2018-06-29T12:41:09.912Z,4.58
2018-06-29T12:43:37.857Z,4.65
2018-06-29T12:46:06.296Z,4.00
2018-06-29T12:48:33.872Z,3.27
2018-06-29T12:51:01.456Z,4.25
2018-06-29T12:53:29.036Z,5.20
2018-06-29T12:55:56.815Z,3.80
2018-06-29T12:58:24.556Z,4.95
2018-06-29T13:00:52.152Z,6.92
2018-06-29T13:03:19.757Z,4.67
2018-06-29T13:05:47.353Z,3.92
2018-06-29T13:08:14.975Z,8.03
2018-06-29T13:10:42.628Z,5.17
2018-06-29T13:13:10.368Z,4.60
2018-06-29T13:15:39.969Z,5.05
2018-06-29T13:18:07.572Z,5.72
2018-06-29T13:20:35.297Z,6.50
2018-06-29T13:23:03.051Z,4.40
2018-06-29T13:25:31.035Z,4.35
2018-06-29T13:27:58.783Z,4.00
2018-06-29T13:30:26.332Z,4.70
2018-06-29T13:32:54.064Z,6.20
2018-06-29T13:35:21.964Z,3.92
2018-06-29T13:37:49.587Z,11.28
2018-06-29T13:40:17.216Z,3.42
2018-06-29T13:42:44.905Z,6.45
2018-06-29T13:45:12.508Z,7.10
2018-06-29T13:47:40.071Z,5.22
2018-06-29T13:50:07.736Z,5.60
2018-06-29T13:52:35.401Z,3.45
2018-06-29T13:55:03.109Z,6.20
2018-06-29T13:57:30.675Z,7.12
2018-06-29T13:59:58.320Z,4.33
2018-06-29T14:02:26.043Z,3.62
2018-06-29T14:04:53.684Z,3.20
2018-06-29T14:07:21.284Z,5.40
2018-06-29T14:09:50.028Z,4.30
2018-06-29T14:12:18.057Z,4.75
2018-06-29T14:14:45.885Z,7.47
2018-06-29T14:17:13.478Z,4.60
2018-06-29T14:19:41.121Z,7.67
2018-06-29T14:22:08.748Z,5.22
2018-06-29T14:24:36.344Z,5.53
2018-06-29T14:27:04.179Z,4.50
2018-06-29T14:29:31.788Z,4.62
2018-06-29T14:31:59.315Z,5.50
2018-06-29T14:34:28.060Z,3.72
2018-06-29T14:36:55.766Z,5.37
2018-06-29T14:39:23.394Z,3.80
2018-06-29T14:41:51.133Z,5.65
2018-06-29T14:44:18.784Z,3.58
2018-06-29T14:46:46.408Z,5.40
2018-06-29T14:49:14.032Z,4.72
2018-06-29T14:51:41.616Z,7.42
2018-06-29T14:54:21.091Z,3.60
2018-06-29T14:56:48.736Z,3.00
2018-06-29T14:59:16.789Z,6.28
2018-06-29T15:01:46.464Z,5.30
2018-06-29T15:04:14.040Z,8.83
2018-06-29T15:06:41.624Z,3.25
2018-06-29T15:09:09.449Z,3.17
2018-06-29T15:11:37.230Z,3.33
2018-06-29T15:14:05.323Z,3.05
2018-06-29T15:16:32.889Z,2.87
2018-06-29T15:19:00.500Z,4.95
2018-06-29T15:21:28.055Z,3.45
2018-06-29T15:23:55.676Z,3.25
2018-06-29T15:26:23.234Z,3.00
2018-06-29T15:28:50.954Z,4.78
2018-06-29T15:31:18.552Z,2.87
2018-06-29T15:33:46.144Z,2.98
2018-06-29T15:36:13.726Z,2.90
2018-06-29T15:38:41.397Z,3.12
2018-06-29T15:41:08.962Z,4.97
2018-06-29T15:43:36.528Z,2.50
2018-06-29T15:46:05.613Z,3.02
2018-06-29T15:48:53.544Z,4.87
2018-06-29T15:51:21.069Z,3.45
2018-06-29T15:53:48.776Z,3.98
2018-06-29T15:56:16.347Z,3.40
2018-06-29T15:58:44.317Z,8.45
2018-06-29T16:01:15.873Z,4.65
2018-06-29T16:03:43.453Z,3.25
2018-06-29T16:06:11.293Z,2.75
2018-06-29T16:08:38.934Z,3.22
2018-06-29T16:11:06.544Z,3.08
2018-06-29T16:13:34.373Z,3.15
2018-06-29T16:16:02.011Z,4.08
2018-06-29T16:18:29.848Z,4.15
2018-06-29T16:20:57.459Z,4.67
2018-06-29T16:23:25.045Z,5.28
2018-06-29T16:25:52.626Z,3.40
2018-06-29T16:28:20.292Z,3.33
2018-06-29T16:30:47.967Z,3.10
2018-06-29T16:33:15.617Z,3.35
2018-06-29T16:35:43.224Z,3.10
2018-06-29T16:38:10.901Z,3.12
2018-06-29T16:40:38.657Z,3.27
2018-06-29T16:43:06.226Z,4.25
2018-06-29T16:45:33.862Z,2.58
2018-06-29T16:48:01.505Z,2.92
2018-06-29T16:50:29.309Z,4.47
2018-06-29T16:52:57.052Z,3.45
2018-06-29T16:55:24.610Z,4.37
2018-06-29T16:57:54.396Z,6.00
2018-06-29T17:00:21.958Z,4.25
2018-06-29T17:02:49.557Z,4.58
2018-06-29T17:05:17.153Z,4.30
2018-06-29T17:07:45.071Z,2.50
2018-06-29T17:10:12.779Z,2.47
2018-06-29T17:12:40.524Z,3.37
2018-06-29T17:15:08.652Z,2.75
2018-06-29T17:17:36.337Z,3.50
2018-06-29T17:20:03.997Z,4.05
2018-06-29T17:22:31.666Z,3.17
2018-06-29T17:24:59.287Z,3.50
2018-06-29T17:27:26.853Z,2.70
2018-06-29T17:29:54.429Z,3.85
2018-06-29T17:32:22.008Z,2.72
2018-06-29T17:34:49.701Z,3.55
2018-06-29T17:37:19.468Z,2.67
2018-06-29T17:39:47.057Z,2.85
2018-06-29T17:42:14.666Z,4.55
2018-06-29T17:44:42.263Z,2.60
2018-06-29T17:47:09.835Z,2.58
2018-06-29T17:49:37.420Z,2.15
2018-06-29T17:52:05.236Z,2.65
2018-06-29T17:54:32.821Z,3.72
2018-06-29T17:57:00.376Z,2.65
2018-06-29T17:59:28.030Z,2.50
2018-06-29T18:01:55.635Z,2.60
2018-06-29T18:04:23.395Z,2.08
2018-06-29T18:06:51.041Z,2.30
2018-06-29T18:09:18.607Z,2.47
2018-06-29T18:11:46.252Z,2.90
2018-06-29T18:14:13.846Z,2.40
2018-06-29T18:16:41.419Z,3.03
2018-06-29T18:19:09.091Z,3.22
2018-06-29T18:21:36.696Z,2.35
2018-06-29T18:24:04.566Z,2.70
2018-06-29T18:26:32.159Z,2.60
2018-06-29T18:28:59.736Z,3.33
2018-06-29T18:31:27.647Z,2.05
2018-06-29T18:33:55.368Z,2.43
2018-06-29T18:36:22.981Z,5.12
2018-06-29T18:38:50.613Z,2.80
2018-06-29T18:41:18.253Z,2.07
2018-06-29T18:43:45.868Z,4.03
2018-06-29T18:46:13.523Z,2.30
2018-06-29T18:48:41.204Z,2.10
2018-06-29T18:51:08.865Z,2.50
2018-06-29T18:53:36.723Z,2.70
2018-06-29T18:56:04.393Z,3.10
2018-06-29T18:58:32.016Z,3.33
2018-06-29T19:00:59.619Z,2.33
2018-06-29T19:03:27.181Z,1.90
2018-06-29T19:05:54.792Z,3.60
2018-06-29T19:08:22.394Z,2.10
2018-06-29T19:10:49.984Z,3.03
2018-06-29T19:13:17.605Z,1.50
2018-06-29T19:15:45.204Z,2.77
2018-06-29T19:18:12.847Z,3.83
2018-06-29T19:20:46.098Z,2.40
2018-06-29T19:23:13.736Z,2.60
2018-06-29T19:25:41.422Z,2.30
2018-06-29T19:28:09.422Z,3.43
2018-06-29T19:30:37.108Z,1.77
2018-06-29T19:33:05.412Z,5.00
2018-06-29T19:35:33.057Z,2.30
2018-06-29T19:38:00.846Z,4.00
2018-06-29T19:40:28.505Z,3.03
2018-06-29T19:42:56.117Z,2.37
2018-06-29T19:45:23.760Z,5.13
2018-06-29T19:47:51.479Z,3.33
2018-06-29T19:50:19.304Z,3.83
2018-06-29T19:52:46.927Z,3.10
2018-06-29T19:55:14.455Z,3.50
2018-06-29T19:57:42.065Z,3.23
2018-06-29T20:00:10.025Z,5.67
2018-06-29T20:02:37.706Z,5.27
2018-06-29T20:05:05.373Z,5.10
2018-06-29T20:07:32.943Z,4.83
2018-06-29T20:10:00.596Z,4.63
2018-06-29T20:12:28.186Z,7.13
2018-06-29T20:14:55.768Z,7.33
2018-06-29T20:17:23.402Z,5.43
2018-06-29T20:19:50.984Z,4.20
2018-06-29T20:22:18.667Z,5.63
2018-06-29T20:24:47.160Z,5.30
2018-06-29T20:27:14.718Z,5.07
2018-06-29T20:29:42.563Z,3.80
2018-06-29T20:32:10.481Z,6.70
2018-06-29T20:34:38.328Z,3.83
2018-06-29T20:37:05.972Z,3.83
2018-06-29T20:39:33.687Z,6.03
2018-06-29T20:42:01.389Z,5.57
2018-06-29T20:44:29.096Z,5.97
2018-06-29T20:46:56.676Z,3.33
2018-06-29T20:49:24.305Z,9.03
2018-06-29T20:51:52.024Z,5.87
2018-06-29T20:54:19.664Z,4.10
2018-06-29T20:56:47.300Z,4.43
2018-06-29T20:59:16.999Z,8.97
2018-06-29T21:01:44.808Z,5.53
2018-06-29T21:04:12.408Z,4.10
2018-06-29T21:06:40.000Z,5.90
2018-06-29T21:09:08.459Z,4.93
2018-06-29T21:11:36.155Z,4.07
2018-06-29T21:14:03.930Z,5.23
2018-06-29T21:16:31.548Z,6.93
2018-06-29T21:18:59.265Z,3.90
2018-06-29T21:21:26.841Z,4.90
2018-06-29T21:23:54.438Z,7.07
2018-06-29T21:26:21.980Z,3.50
2018-06-29T21:28:49.612Z,3.57
2018-06-29T21:31:17.342Z,4.10
2018-06-29T21:33:45.064Z,3.73
2018-06-29T21:36:12.679Z,4.33
2018-06-29T21:38:40.272Z,5.60
2018-06-29T21:41:07.927Z,5.77
2018-06-29T21:43:35.824Z,4.97
2018-06-29T21:46:03.484Z,4.70
2018-06-29T21:48:31.199Z,6.73
2018-06-29T21:50:58.834Z,5.47
2018-06-29T21:53:26.524Z,6.77
2018-06-29T21:55:54.164Z,5.97
2018-06-29T21:58:21.751Z,5.90
2018-06-29T22:00:50.248Z,5.67
2018-06-29T22:03:19.007Z,6.40
2018-06-29T22:05:46.652Z,7.03
2018-06-29T22:08:14.412Z,5.00
2018-06-29T22:10:42.028Z,5.47
2018-06-29T22:13:10.926Z,4.20
2018-06-29T22:15:38.568Z,5.47
2018-06-29T22:18:06.248Z,6.50
2018-06-29T22:20:33.856Z,4.13
2018-06-29T22:23:01.585Z,3.97
2018-06-29T22:25:29.316Z,4.03
2018-06-29T22:27:56.954Z,5.77
2018-06-29T22:30:24.572Z,3.80
2018-06-29T22:32:52.248Z,6.03
2018-06-29T22:35:21.004Z,4.47
2018-06-29T22:37:48.638Z,4.30
2018-06-29T22:40:16.460Z,3.90
2018-06-29T22:42:44.036Z,4.70
2018-06-29T22:45:11.627Z,5.90
2018-06-29T22:47:39.265Z,3.73
2018-06-29T22:50:06.968Z,5.10
2018-06-29T22:52:34.598Z,4.13
2018-06-29T22:55:02.228Z,4.80
2018-06-29T22:57:30.012Z,3.40
2018-06-29T22:59:57.564Z,3.47
2018-06-29T23:02:25.150Z,6.60
2018-06-29T23:04:52.763Z,4.67
2018-06-29T23:07:20.403Z,3.60
2018-06-29T23:09:48.005Z,4.37
2018-06-29T23:12:15.616Z,5.13
2018-06-29T23:14:43.215Z,4.17
2018-06-29T23:17:10.893Z,3.80
2018-06-29T23:19:38.627Z,6.27
2018-06-29T23:22:06.597Z,3.60
2018-06-29T23:24:34.192Z,3.77
2018-06-29T23:27:06.765Z,3.73
2018-06-29T23:29:34.364Z,4.50
2018-06-29T23:32:01.969Z,5.20
2018-06-29T23:34:29.595Z,4.80
2018-06-29T23:36:57.152Z,4.50
2018-06-29T23:39:25.176Z,3.87
2018-06-29T23:41:52.812Z,4.70
2018-06-29T23:44:20.417Z,4.80
2018-06-29T23:46:48.016Z,3.57
2018-06-29T23:49:16.624Z,3.90
2018-06-29T23:51:44.243Z,5.03
2018-06-29T23:54:12.115Z,3.90
2018-06-29T23:56:39.696Z,5.40
2018-06-29T23:59:07.276Z,3.60
